Metropolis, IL (62960)

7:40 AM CDT on May 29, 2017 (GMT -0500)
Rural Area | | Change Station

Elev 348 ft 37.15 °N, 88.72 °W | Updated 1 minute ago

Clear
Clear
71.1 °F
Feels Like 71.1 °F
N
0.0
Wind Variable Wind from SE
Gusts 1.3 mph

Today
High -- | Low -- °F
--% Chance of Precip.
Yesterday
High -- | Low -- °F
Precip. -- in
Pressure 29.97 in
Visibility 5.0 miles
Clouds Clear
Dew Point 66 °F
Humidity 85%
Rainfall 0.00 in
Snow Depth Not available.
5:37 AM 8:07 PM
Waxing Crescent, 19% visible
METAR KM30 291215Z AUTO 00000KT 5SM BR CLR 18/18 A2997 RMK AO2 T01760175
Pressure 29.97 in
Visibility 5.0 miles
Clouds Clear
Dew Point 66 °F
Humidity 85%
Rainfall 0.00 in
Snow Depth Not available.
5:37 AM 8:07 PM
Waxing Crescent, 19% visible
METAR KM30 291215Z AUTO 00000KT 5SM BR CLR 18/18 A2997 RMK AO2 T01760175

Get Severe Weather Alerts

Thanks for signing up!

Be on the lookout for a verification email in your inbox.

You'll start receiving the daily forecast at 6 AM.

×

10-Day Weather Forecast

Almanac

Astronomy

May. 29, 2017 Rise Set
Actual Time
Civil Twilight
Nautical Twilight
Astronomical Twilight
Moon
Length of Visible Light
Length of Day
Tomorrow will be .
, % of the Moon is Illuminated

Today's Extremes

State Highs State Lows

Community

WunderPhotos

Category 6

Welcome to Category 6. This is the collective home for Weather Underground's featured writeups by Dr. Jeff Masters (right), Bob Henson (left), Chris Burt, and other regular contributors.

Nearby

Air Quality

  Air Quality AQ Index Pollutant
Not available.

Snow Depth

Station Depth Elevation

Earthquake Activity

City Distance Mag. Time & Date
Minimum magnitude displayed is 2.5.

Coastal Water Temperatures

Place Temperature

Stations

Nearby Weather Stations

Station Location Temp. Windchill Dew Point Humidity Wind Precip. Elev Updated Type
                   

Watches & Warnings

There are currently no watches in effect.